Time;durP1;ratioP1;P1;durP2;ratioP2;P2;SDS_P1;SDS_P2;PMS_P1;PMS_P2;Temp;Humidity;BMP_temperature;BMP_pressure;BME280_temperature;BME280_humidity;BME280_pressure;Samples;Min_cycle;Max_cycle;Signal;HPM_P1;HPM_P2
2023/12/14 00:00:31;;;;;;;2.40;1.53;;;6.60;99.90;;;;;;5010952;28;20672;-85
2023/12/14 00:02:56;;;;;;;3.42;1.80;;;6.70;99.90;;;;;;4993488;28;20200;-85
2023/12/14 00:05:22;;;;;;;2.20;1.57;;;6.70;99.90;;;;;;5010577;28;20265;-85
2023/12/14 00:07:47;;;;;;;3.97;1.87;;;6.70;99.90;;;;;;5008166;28;20198;-84
2023/12/14 00:10:13;;;;;;;1.57;1.10;;;6.70;99.90;;;;;;4995823;28;20261;-85
2023/12/14 00:12:38;;;;;;;7.43;1.73;;;6.80;99.90;;;;;;4992219;28;20187;-83
2023/12/14 00:15:05;;;;;;;6.60;1.73;;;6.80;99.90;;;;;;5011274;28;20222;-83
2023/12/14 00:17:31;;;;;;;4.20;1.95;;;6.80;99.90;;;;;;5013264;28;20753;-83
2023/12/14 00:19:56;;;;;;;5.60;2.40;;;6.80;99.90;;;;;;5014183;28;20186;-84
2023/12/14 00:22:22;;;;;;;2.90;1.30;;;6.80;99.90;;;;;;5009112;28;20189;-83
2023/12/14 00:24:47;;;;;;;1.43;1.33;;;6.80;99.90;;;;;;5024113;28;20246;-84
2023/12/14 00:27:13;;;;;;;5.33;2.43;;;6.80;99.90;;;;;;5010959;28;20293;-84
2023/12/14 00:29:38;;;;;;;3.03;1.07;;;6.90;99.90;;;;;;5008934;28;20171;-83
2023/12/14 00:32:04;;;;;;;3.17;1.67;;;6.90;99.90;;;;;;5014553;28;20197;-84
2023/12/14 00:34:30;;;;;;;5.40;2.10;;;6.90;99.90;;;;;;4994501;28;20645;-83
2023/12/14 00:36:55;;;;;;;3.90;2.17;;;7.00;99.90;;;;;;5009197;28;20441;-84
2023/12/14 00:39:21;;;;;;;3.63;1.73;;;7.00;99.90;;;;;;5009955;28;20448;-84
2023/12/14 00:41:46;;;;;;;5.30;1.57;;;7.10;99.90;;;;;;5007997;28;20217;-84
2023/12/14 00:44:12;;;;;;;3.33;2.20;;;7.00;99.90;;;;;;4996069;28;20203;-83
2023/12/14 00:46:37;;;;;;;3.30;2.63;;;7.10;99.90;;;;;;4993491;28;20667;-83
2023/12/14 00:49:03;;;;;;;3.27;1.10;;;7.10;99.90;;;;;;5009883;28;20178;-84
2023/12/14 00:51:28;;;;;;;2.30;1.80;;;7.10;99.90;;;;;;4997956;28;20176;-85
2023/12/14 00:53:54;;;;;;;21.97;4.13;;;7.10;99.90;;;;;;4998456;28;20209;-84
2023/12/14 00:56:19;;;;;;;3.60;1.93;;;7.00;99.90;;;;;;5009311;28;20167;-85
2023/12/14 00:58:45;;;;;;;12.20;2.23;;;7.00;99.90;;;;;;5011940;28;20194;-85
2023/12/14 01:01:10;;;;;;;5.27;2.77;;;7.00;99.90;;;;;;4999054;28;20190;-84
2023/12/14 01:03:36;;;;;;;5.27;2.07;;;7.00;99.90;;;;;;5000475;28;20211;-84
2023/12/14 01:06:02;;;;;;;4.80;2.50;;;7.10;99.90;;;;;;4994206;28;20224;-85
2023/12/14 01:08:27;;;;;;;2.70;1.97;;;7.10;99.90;;;;;;4994208;28;20175;-84
2023/12/14 01:10:53;;;;;;;6.10;3.10;;;7.10;99.90;;;;;;5008668;28;20182;-83
2023/12/14 01:13:18;;;;;;;3.13;2.43;;;7.10;99.90;;;;;;5009253;28;20219;-85
2023/12/14 01:15:44;;;;;;;4.30;2.50;;;7.10;99.90;;;;;;4992380;28;20175;-85
2023/12/14 01:18:10;;;;;;;3.07;2.00;;;;;;;;;;4990346;28;20178;-85
2023/12/14 01:20:35;;;;;;;3.95;2.40;;;7.10;99.90;;;;;;5008509;28;20261;-85
2023/12/14 01:23:01;;;;;;;2.03;1.90;;;7.10;99.90;;;;;;5000174;28;20225;-85
2023/12/14 01:25:26;;;;;;;4.93;2.13;;;7.10;99.90;;;;;;5008726;28;20437;-85
2023/12/14 01:27:52;;;;;;;4.83;2.17;;;7.10;99.90;;;;;;5011827;28;20210;-86
2023/12/14 01:30:17;;;;;;;5.83;3.33;;;7.10;99.90;;;;;;5003899;28;20644;-85
2023/12/14 01:32:43;;;;;;;3.60;2.40;;;7.10;99.90;;;;;;4995891;28;20190;-83
2023/12/14 01:35:08;;;;;;;2.00;1.63;;;7.10;99.90;;;;;;5000417;28;20259;-83
2023/12/14 01:37:34;;;;;;;5.00;2.67;;;7.10;99.90;;;;;;5002517;28;20174;-86
2023/12/14 01:39:59;;;;;;;3.27;2.13;;;7.10;99.90;;;;;;5009614;28;20191;-85
2023/12/14 01:42:26;;;;;;;4.43;1.93;;;7.10;99.90;;;;;;5008316;28;20182;-86
2023/12/14 01:44:51;;;;;;;4.43;2.70;;;7.10;99.90;;;;;;4997112;28;20213;-85
2023/12/14 01:47:17;;;;;;;3.67;2.33;;;7.10;99.90;;;;;;5010418;28;20274;-85
2023/12/14 01:49:42;;;;;;;3.00;1.90;;;7.10;99.90;;;;;;5013128;28;20208;-85
2023/12/14 01:52:08;;;;;;;4.80;1.97;;;7.10;99.90;;;;;;4991587;28;20478;-86
2023/12/14 01:54:33;;;;;;;4.93;2.63;;;7.10;99.90;;;;;;5007358;28;20582;-86
2023/12/14 01:56:59;;;;;;;4.80;2.70;;;7.10;99.90;;;;;;4989675;28;20265;-85
2023/12/14 01:59:25;;;;;;;7.00;2.30;;;7.10;99.90;;;;;;4992236;28;20242;-85
2023/12/14 02:01:56;;;;;;;4.90;1.97;;;7.10;99.90;;;;;;4996115;28;20853;-86
2023/12/14 02:04:23;;;;;;;6.55;3.55;;;7.10;99.90;;;;;;4997977;28;20231;-88
2023/12/14 02:06:48;;;;;;;3.05;1.73;;;7.10;99.90;;;;;;5009347;28;20213;-86
2023/12/14 02:09:14;;;;;;;5.53;3.03;;;7.10;99.90;;;;;;5009704;28;20222;-89
2023/12/14 02:11:40;;;;;;;13.13;2.37;;;;;;;;;;4990083;28;20773;-86
2023/12/14 02:14:06;;;;;;;2.87;1.60;;;7.10;99.90;;;;;;5006758;28;20240;-85
2023/12/14 02:16:32;;;;;;;4.13;2.83;;;7.10;99.90;;;;;;4991056;28;20504;-85
2023/12/14 02:18:58;;;;;;;2.07;1.90;;;7.10;99.90;;;;;;5003333;28;20250;-85
2023/12/14 02:21:23;;;;;;;5.83;1.47;;;7.10;99.90;;;;;;5002457;28;20218;-84
2023/12/14 02:23:49;;;;;;;2.70;1.77;;;7.10;99.90;;;;;;4986352;28;20203;-85
2023/12/14 02:26:14;;;;;;;3.30;1.77;;;7.10;99.90;;;;;;4981057;28;20203;-85
2023/12/14 02:28:40;;;;;;;3.13;1.33;;;7.10;99.90;;;;;;5005883;28;20163;-83
2023/12/14 02:31:06;;;;;;;9.77;2.10;;;7.20;99.90;;;;;;5012588;28;20726;-83
2023/12/14 02:33:32;;;;;;;2.40;1.60;;;7.20;99.90;;;;;;4992617;28;20198;-84
2023/12/14 02:35:57;;;;;;;4.20;2.07;;;7.20;99.90;;;;;;5013250;28;20250;-85
2023/12/14 02:38:23;;;;;;;15.80;2.37;;;7.20;99.90;;;;;;5010323;28;20191;-85
2023/12/14 02:40:50;;;;;;;2.90;1.37;;;7.30;99.90;;;;;;4990246;28;20202;-85
2023/12/14 02:43:16;;;;;;;4.40;1.40;;;7.30;99.90;;;;;;5021135;28;20237;-85
2023/12/14 02:45:42;;;;;;;1.87;1.77;;;7.30;99.90;;;;;;4998841;28;20191;-85
2023/12/14 02:48:07;;;;;;;4.93;1.80;;;7.30;99.90;;;;;;5009980;28;20646;-83
2023/12/14 02:50:33;;;;;;;11.60;1.77;;;7.30;99.90;;;;;;4991567;28;20692;-83
2023/12/14 02:52:58;;;;;;;3.03;1.67;;;7.30;99.90;;;;;;5004390;28;20257;-85
2023/12/14 02:55:24;;;;;;;3.40;2.30;;;7.30;99.90;;;;;;5005942;28;20170;-84
2023/12/14 02:57:49;;;;;;;7.80;1.30;;;7.30;99.90;;;;;;5000993;28;20187;-85
2023/12/14 03:00:15;;;;;;;5.90;1.97;;;7.30;99.90;;;;;;4989396;28;20178;-85
2023/12/14 03:02:41;;;;;;;3.80;2.33;;;;;;;;;;5002948;28;20731;-85
2023/12/14 03:05:07;;;;;;;2.20;1.43;;;7.30;99.90;;;;;;4992992;28;20202;-85
2023/12/14 03:07:32;;;;;;;2.10;1.53;;;7.30;99.90;;;;;;4992518;28;20458;-85
2023/12/14 03:09:58;;;;;;;2.53;1.43;;;7.40;99.90;;;;;;5010739;28;20426;-85
2023/12/14 03:12:23;;;;;;;1.57;1.47;;;7.40;99.90;;;;;;4992434;28;20219;-85
2023/12/14 03:14:49;;;;;;;8.77;2.60;;;;;;;;;;5006026;28;20682;-86
2023/12/14 03:17:16;;;;;;;2.63;1.70;;;7.30;99.90;;;;;;4992804;28;20183;-85
2023/12/14 03:19:42;;;;;;;2.88;2.00;;;7.30;99.90;;;;;;4987970;28;20426;-85
2023/12/14 03:22:08;;;;;;;4.67;2.30;;;7.30;99.90;;;;;;4992042;28;20189;-85
2023/12/14 03:24:35;;;;;;;4.13;2.30;;;7.40;99.90;;;;;;4989827;28;20465;-86
2023/12/14 03:27:02;;;;;;;4.25;1.38;;;7.40;99.90;;;;;;5010389;28;20191;-85
2023/12/14 03:29:27;;;;;;;2.55;1.58;;;7.30;99.90;;;;;;4995946;28;20175;-84
2023/12/14 03:31:53;;;;;;;3.30;2.03;;;7.30;99.90;;;;;;4996773;28;20189;-84
2023/12/14 03:34:18;;;;;;;2.43;1.77;;;7.30;99.90;;;;;;4994619;28;20196;-85
2023/12/14 03:36:44;;;;;;;5.10;2.47;;;7.40;99.90;;;;;;5006362;28;20189;-84
2023/12/14 03:39:10;;;;;;;5.00;3.10;;;7.50;99.90;;;;;;5013879;28;20204;-84
2023/12/14 03:41:35;;;;;;;6.17;2.10;;;7.50;99.90;;;;;;5009324;28;20186;-86
2023/12/14 03:44:01;;;;;;;4.37;2.70;;;7.50;99.90;;;;;;4994801;28;20454;-85
2023/12/14 03:46:26;;;;;;;2.80;2.20;;;7.40;99.90;;;;;;5001234;28;20203;-85
2023/12/14 03:48:52;;;;;;;3.93;2.70;;;7.30;99.90;;;;;;5010640;28;20662;-84
2023/12/14 03:51:19;;;;;;;8.50;2.57;;;7.50;99.90;;;;;;5010003;28;20189;-84
2023/12/14 03:53:44;;;;;;;16.15;3.42;;;7.30;99.90;;;;;;4987146;28;20226;-84
2023/12/14 03:56:11;;;;;;;7.10;3.97;;;7.30;99.90;;;;;;5008945;28;20606;-85
2023/12/14 03:58:36;;;;;;;4.63;2.33;;;7.40;99.90;;;;;;5000896;28;20202;-84
2023/12/14 04:01:02;;;;;;;3.10;2.07;;;7.30;99.90;;;;;;5010984;28;20212;-84
2023/12/14 04:03:27;;;;;;;3.57;1.83;;;7.30;99.90;;;;;;5007993;28;20337;-84
2023/12/14 04:05:53;;;;;;;4.73;1.50;;;7.20;99.90;;;;;;4990335;28;20178;-83
2023/12/14 04:08:18;;;;;;;10.90;2.80;;;7.20;99.90;;;;;;5009693;28;20229;-85
2023/12/14 04:10:44;;;;;;;7.67;2.47;;;7.20;99.90;;;;;;5014731;28;20175;-85
2023/12/14 04:13:09;;;;;;;7.80;2.47;;;7.20;99.90;;;;;;4998461;28;21710;-85
2023/12/14 04:15:35;;;;;;;4.10;2.40;;;7.10;99.90;;;;;;5000117;28;20227;-85
2023/12/14 04:18:00;;;;;;;7.80;3.57;;;7.20;99.90;;;;;;4995614;28;20174;-85
2023/12/14 04:20:26;;;;;;;9.10;2.70;;;7.10;99.90;;;;;;5012609;28;20189;-84
2023/12/14 04:22:51;;;;;;;5.57;3.10;;;7.10;99.90;;;;;;4999129;28;20182;-85
2023/12/14 04:25:17;;;;;;;4.80;2.53;;;;;;;;;;4995657;28;20262;-84
2023/12/14 04:27:43;;;;;;;7.17;2.73;;;7.10;99.90;;;;;;4988601;28;20217;-85
2023/12/14 04:30:10;;;;;;;4.70;2.65;;;7.10;99.90;;;;;;5015043;28;20453;-85
2023/12/14 04:32:37;;;;;;;9.63;4.20;;;7.10;99.90;;;;;;5016414;28;20706;-84
2023/12/14 04:35:02;;;;;;;6.00;2.40;;;7.00;99.90;;;;;;5014069;28;20714;-85
2023/12/14 04:37:30;;;;;;;13.97;2.17;;;7.00;99.90;;;;;;4992437;28;20183;-85
2023/12/14 04:39:55;;;;;;;15.48;3.90;;;7.00;99.90;;;;;;5007678;28;20847;-86
2023/12/14 04:42:21;;;;;;;4.83;2.27;;;7.00;99.90;;;;;;5017839;28;20183;-86
2023/12/14 04:44:46;;;;;;;4.67;2.30;;;6.90;99.90;;;;;;5014885;28;20241;-85
2023/12/14 04:47:12;;;;;;;2.70;2.33;;;7.00;99.90;;;;;;4993700;28;20270;-85
2023/12/14 04:49:37;;;;;;;5.00;2.57;;;6.90;99.90;;;;;;4987557;28;20261;-84
2023/12/14 04:52:03;;;;;;;5.70;4.00;;;6.90;99.90;;;;;;4991663;28;20637;-85
2023/12/14 04:54:28;;;;;;;8.37;2.63;;;6.90;99.90;;;;;;5013512;28;20194;-86
2023/12/14 04:56:54;;;;;;;5.30;3.70;;;;;;;;;;4996761;28;20185;-85
2023/12/14 04:59:20;;;;;;;4.17;3.07;;;;;;;;;;5011505;28;20170;-83
2023/12/14 05:01:46;;;;;;;8.40;3.40;;;6.90;99.90;;;;;;5011963;28;20416;-83
2023/12/14 05:04:11;;;;;;;9.43;3.90;;;6.90;99.90;;;;;;5017490;28;20463;-83
2023/12/14 05:06:38;;;;;;;4.33;3.03;;;6.90;99.90;;;;;;5010034;28;20692;-83
2023/12/14 05:09:05;;;;;;;11.20;4.70;;;6.90;99.90;;;;;;5013546;28;20234;-84
2023/12/14 05:11:31;;;;;;;8.45;4.20;;;6.80;99.90;;;;;;4994325;28;20155;-85
2023/12/14 05:13:56;;;;;;;5.60;3.73;;;6.90;99.90;;;;;;4997301;28;20267;-85
2023/12/14 05:16:26;;;;;;;6.70;3.10;;;6.80;99.90;;;;;;4990029;28;20182;-85
2023/12/14 05:18:52;;;;;;;7.47;3.13;;;6.90;99.90;;;;;;4993728;28;20182;-84
2023/12/14 05:21:18;;;;;;;7.00;3.13;;;6.80;99.90;;;;;;4997538;28;20194;-85
2023/12/14 05:23:44;;;;;;;7.43;3.00;;;;;;;;;;5010672;28;20207;-85
2023/12/14 05:26:10;;;;;;;11.17;3.40;;;;;;;;;;5016626;28;20579;-85
2023/12/14 05:28:35;;;;;;;8.17;4.03;;;6.80;99.90;;;;;;5000344;28;20428;-84
2023/12/14 05:31:02;;;;;;;7.70;3.17;;;6.80;99.90;;;;;;5018581;28;20409;-86
2023/12/14 05:33:28;;;;;;;7.25;3.22;;;6.80;99.90;;;;;;4985631;28;20347;-89
2023/12/14 05:35:54;;;;;;;8.83;3.10;;;;;;;;;;4997211;28;20300;-87
2023/12/14 05:38:20;;;;;;;7.15;3.70;;;6.60;99.90;;;;;;5010934;28;20175;-89
2023/12/14 05:40:45;;;;;;;9.23;5.00;;;6.60;99.90;;;;;;5015166;28;20190;-86
2023/12/14 05:43:11;;;;;;;9.57;5.00;;;;;;;;;;5007330;28;20199;-87
2023/12/14 05:45:37;;;;;;;12.80;3.57;;;6.60;99.90;;;;;;4993317;28;20553;-84
2023/12/14 05:48:05;;;;;;;11.53;4.73;;;6.60;99.90;;;;;;4990740;28;20824;-86
2023/12/14 05:50:30;;;;;;;11.60;5.50;;;6.60;99.90;;;;;;5008160;28;20174;-88
2023/12/14 05:52:56;;;;;;;10.80;4.47;;;6.60;99.90;;;;;;5005691;28;20275;-87
2023/12/14 05:55:22;;;;;;;17.13;5.40;;;6.60;99.90;;;;;;4989439;28;20186;-87
2023/12/14 05:57:48;;;;;;;6.90;4.80;;;6.60;99.90;;;;;;5005193;28;20212;-87
2023/12/14 06:00:14;;;;;;;11.45;5.88;;;6.60;99.90;;;;;;5005295;28;20178;-88
2023/12/14 06:02:39;;;;;;;9.37;4.93;;;6.60;99.90;;;;;;5010043;28;20282;-88
2023/12/14 06:05:07;;;;;;;13.07;5.77;;;6.60;99.90;;;;;;5009198;28;20453;-88
2023/12/14 06:07:32;;;;;;;13.65;5.47;;;6.50;99.90;;;;;;4996606;28;20695;-88
2023/12/14 06:09:58;;;;;;;11.73;5.10;;;;;;;;;;5007431;28;20183;-87
2023/12/14 06:12:24;;;;;;;8.93;4.00;;;6.50;99.90;;;;;;4986824;28;20672;-89
2023/12/14 06:14:50;;;;;;;18.47;6.00;;;6.50;99.90;;;;;;4976241;28;20452;-88
2023/12/14 06:17:18;;;;;;;8.65;3.72;;;6.40;99.90;;;;;;4981791;28;20530;-88
2023/12/14 06:19:44;;;;;;;11.60;6.05;;;6.60;99.90;;;;;;4991466;28;20200;-86
2023/12/14 06:22:09;;;;;;;7.00;2.63;;;;;;;;;;5004997;28;20182;-86
2023/12/14 06:24:35;;;;;;;17.00;5.50;;;6.60;99.90;;;;;;5007603;28;20256;-86
2023/12/14 06:27:01;;;;;;;4.97;3.10;;;;;;;;;;5004039;28;20477;-87
2023/12/14 06:29:27;;;;;;;7.17;3.50;;;;;;;;;;4989229;28;20355;-88
2023/12/14 06:31:52;;;;;;;13.77;5.80;;;6.70;99.90;;;;;;5006901;28;20421;-86
2023/12/14 06:34:18;;;;;;;8.07;4.37;;;6.70;99.90;;;;;;5014198;28;20664;-86
2023/12/14 06:36:46;;;;;;;8.33;4.40;;;6.70;99.90;;;;;;5005429;28;20722;-86
2023/12/14 06:39:12;;;;;;;8.82;4.47;;;6.60;99.90;;;;;;4996344;28;20178;-87
2023/12/14 06:41:38;;;;;;;12.00;4.17;;;6.60;99.90;;;;;;4989130;28;20741;-86
2023/12/14 06:44:04;;;;;;;7.68;2.70;;;6.50;99.90;;;;;;5009070;28;20204;-86
2023/12/14 06:46:30;;;;;;;8.37;3.23;;;;;;;;;;5009046;28;20271;-87
2023/12/14 06:48:55;;;;;;;5.47;2.50;;;6.50;99.90;;;;;;4999585;28;20546;-87
2023/12/14 06:51:22;;;;;;;11.83;4.67;;;6.50;99.90;;;;;;4998895;28;20433;-87
2023/12/14 06:53:48;;;;;;;11.60;3.50;;;;;;;;;;4997488;28;20202;-87
2023/12/14 06:56:13;;;;;;;8.03;3.60;;;6.50;99.90;;;;;;5011330;28;20189;-87
2023/12/14 06:58:43;;;;;;;8.83;1.80;;;6.40;99.90;;;;;;4995977;28;20443;-86
2023/12/14 07:01:17;;;;;;;6.05;2.92;;;6.40;99.90;;;;;;5010499;28;20174;-89
2023/12/14 07:03:44;;;;;;;5.18;2.75;;;6.40;99.90;;;;;;5020919;28;20252;-89
2023/12/14 07:06:13;;;;;;;12.25;5.05;;;6.40;99.90;;;;;;5009772;28;20213;-88
2023/12/14 07:08:40;;;;;;;12.93;4.03;;;6.40;99.90;;;;;;5007154;28;20588;-87
2023/12/14 07:11:06;;;;;;;7.72;3.83;;;;;;;;;;5013836;28;20175;-86
2023/12/14 07:13:32;;;;;;;8.68;3.92;;;;;;;;;;4991983;28;20289;-87
2023/12/14 07:15:59;;;;;;;8.23;4.03;;;6.60;99.90;;;;;;4992102;28;20187;-86
2023/12/14 07:18:24;;;;;;;8.05;3.67;;;6.60;99.90;;;;;;5000479;28;20266;-88
2023/12/14 07:20:50;;;;;;;6.97;2.57;;;;;;;;;;5000467;28;20551;-88
2023/12/14 07:23:16;;;;;;;12.23;5.53;;;6.60;99.90;;;;;;5032885;28;20194;-86
2023/12/14 07:25:41;;;;;;;8.53;3.00;;;6.60;99.90;;;;;;5014563;28;20433;-87
2023/12/14 07:28:07;;;;;;;7.27;2.90;;;6.70;99.90;;;;;;5022164;28;20221;-88
2023/12/14 07:30:32;;;;;;;6.57;3.40;;;6.70;99.90;;;;;;4989107;28;20197;-87
2023/12/14 07:32:58;;;;;;;8.00;4.10;;;6.80;99.90;;;;;;5007700;28;20194;-87
2023/12/14 07:35:24;;;;;;;15.57;6.83;;;;;;;;;;5009200;28;20261;-85
2023/12/14 07:37:50;;;;;;;10.93;3.75;;;6.90;99.90;;;;;;5001731;28;20179;-83
2023/12/14 07:40:16;;;;;;;12.17;4.27;;;6.90;99.90;;;;;;4999498;28;20438;-83
2023/12/14 07:42:42;;;;;;;16.80;6.28;;;6.90;99.90;;;;;;4999009;28;20182;-83
2023/12/14 07:45:09;;;;;;;10.17;4.97;;;6.90;99.90;;;;;;5001589;28;20206;-83
2023/12/14 07:47:35;;;;;;;16.77;4.90;;;7.00;99.90;;;;;;5018671;28;20809;-83
2023/12/14 07:50:00;;;;;;;15.63;5.97;;;6.90;99.90;;;;;;5004702;28;20174;-83
2023/12/14 07:52:26;;;;;;;16.50;6.33;;;6.90;99.90;;;;;;5019668;28;20183;-83
2023/12/14 07:54:51;;;;;;;11.90;5.27;;;7.00;99.90;;;;;;5001435;28;20524;-83
2023/12/14 07:57:17;;;;;;;6.80;3.60;;;7.00;99.90;;;;;;5001869;28;20190;-83
2023/12/14 07:59:43;;;;;;;6.67;2.93;;;7.10;99.90;;;;;;5018166;28;20246;-83
2023/12/14 08:02:08;;;;;;;3.97;2.50;;;7.20;99.90;;;;;;4999778;28;20182;-82
2023/12/14 08:04:35;;;;;;;6.30;3.37;;;7.20;99.90;;;;;;4999841;28;20254;-83
2023/12/14 08:07:00;;;;;;;11.20;4.90;;;7.20;99.90;;;;;;5017621;28;20407;-85
2023/12/14 08:09:26;;;;;;;11.90;4.43;;;;;;;;;;5019707;28;20253;-83
2023/12/14 08:11:52;;;;;;;10.63;4.27;;;7.30;99.90;;;;;;5014060;28;20190;-81
2023/12/14 08:14:17;;;;;;;6.53;2.63;;;7.50;99.90;;;;;;5016295;28;22312;-82
2023/12/14 08:16:43;;;;;;;13.47;4.67;;;7.50;99.90;;;;;;4991120;28;20194;-82
2023/12/14 08:19:09;;;;;;;11.00;4.77;;;;;;;;;;5009863;28;20183;-85
2023/12/14 08:21:34;;;;;;;7.93;3.40;;;7.60;99.90;;;;;;5007725;28;20218;-85
2023/12/14 08:24:00;;;;;;;6.97;3.93;;;7.60;99.90;;;;;;4992818;28;20480;-83
2023/12/14 08:26:25;;;;;;;9.60;3.90;;;7.50;99.90;;;;;;4990092;28;20561;-87
2023/12/14 08:28:51;;;;;;;10.30;4.20;;;7.70;99.90;;;;;;5009629;28;20246;-85
2023/12/14 08:31:16;;;;;;;9.53;4.77;;;7.70;99.90;;;;;;4986486;28;20265;-85
2023/12/14 08:33:42;;;;;;;8.93;4.33;;;7.70;99.90;;;;;;5007790;28;20222;-84
2023/12/14 08:36:08;;;;;;;10.00;4.30;;;7.70;99.90;;;;;;4993305;28;20606;-84
2023/12/14 08:38:34;;;;;;;11.00;3.60;;;7.60;99.90;;;;;;5006400;28;20196;-84
2023/12/14 08:41:00;;;;;;;13.00;4.17;;;7.50;99.90;;;;;;5007409;28;21173;-86
2023/12/14 08:43:26;;;;;;;6.97;4.95;;;7.70;99.90;;;;;;4990247;28;20220;-87
2023/12/14 08:45:51;;;;;;;6.17;3.77;;;7.60;99.90;;;;;;4987030;28;20178;-84
2023/12/14 08:48:17;;;;;;;6.10;2.97;;;7.60;99.90;;;;;;5007982;28;20469;-85
2023/12/14 08:50:43;;;;;;;6.37;3.90;;;7.60;99.90;;;;;;4992512;28;20202;-84
2023/12/14 08:53:09;;;;;;;10.87;3.40;;;;;;;;;;5007259;28;20206;-85
2023/12/14 08:55:34;;;;;;;9.32;3.85;;;7.70;99.90;;;;;;5001698;28;20182;-84
2023/12/14 08:58:00;;;;;;;10.10;3.83;;;;;;;;;;5007957;28;20214;-81
2023/12/14 09:00:26;;;;;;;9.98;4.20;;;7.90;99.90;;;;;;4993836;28;20665;-84
2023/12/14 09:02:51;;;;;;;7.80;4.20;;;8.00;99.90;;;;;;4984190;28;20247;-87
2023/12/14 09:05:20;;;;;;;8.13;3.90;;;8.20;99.90;;;;;;4987548;28;20197;-88
2023/12/14 09:07:46;;;;;;;7.68;3.40;;;8.00;99.90;;;;;;4988549;28;20252;-85
2023/12/14 09:10:12;;;;;;;11.80;5.72;;;8.10;99.90;;;;;;5005143;28;20190;-85
2023/12/14 09:12:38;;;;;;;10.50;3.77;;;8.20;99.90;;;;;;4990699;28;20191;-85
2023/12/14 09:15:04;;;;;;;7.43;3.97;;;8.30;99.90;;;;;;4985417;28;20506;-85
2023/12/14 09:17:32;;;;;;;11.80;4.60;;;8.40;99.90;;;;;;5005921;28;20245;-85
2023/12/14 09:20:03;;;;;;;8.02;3.78;;;10.50;99.90;;;;;;5002837;28;20453;-85
2023/12/14 09:22:28;;;;;;;6.72;2.95;;;8.40;99.90;;;;;;4994285;28;20191;-85
2023/12/14 09:24:54;;;;;;;9.40;4.73;;;8.70;99.90;;;;;;4987143;28;20206;-85
2023/12/14 09:27:19;;;;;;;10.40;4.40;;;8.70;99.90;;;;;;4988641;28;21051;-85
2023/12/14 09:29:45;;;;;;;4.07;2.30;;;8.60;99.90;;;;;;5005703;28;20281;-85
2023/12/14 09:32:10;;;;;;;5.57;3.37;;;8.60;99.90;;;;;;5003191;28;20190;-85
2023/12/14 09:34:36;;;;;;;11.20;5.33;;;8.50;99.90;;;;;;5005445;28;20202;-85
2023/12/14 09:37:01;;;;;;;8.03;3.70;;;8.40;99.90;;;;;;4988445;28;20981;-85
2023/12/14 09:39:30;;;;;;;7.57;3.40;;;8.20;99.90;;;;;;5003548;28;20277;-85
2023/12/14 09:42:08;;;;;;;7.50;3.97;;;8.10;99.90;;;;;;4994091;28;20187;-84
2023/12/14 09:44:36;;;;;;;12.90;3.30;;;8.00;99.90;;;;;;5003872;28;20824;-84
2023/12/14 09:47:02;;;;;;;9.20;5.13;;;8.00;99.90;;;;;;5003346;28;20743;-84
2023/12/14 09:49:30;;;;;;;6.87;3.50;;;8.10;99.90;;;;;;4985612;28;20310;-85
2023/12/14 09:51:59;;;;;;;9.05;4.50;;;8.10;99.90;;;;;;5001926;28;20183;-83
2023/12/14 09:54:27;;;;;;;9.38;4.32;;;8.10;99.90;;;;;;4986084;28;20202;-84
2023/12/14 09:56:52;;;;;;;7.40;3.10;;;8.20;99.90;;;;;;4984014;28;20194;-84
2023/12/14 09:59:19;;;;;;;11.57;5.13;;;8.10;99.90;;;;;;5004946;28;20451;-84
2023/12/14 10:01:44;;;;;;;8.43;3.40;;;8.10;99.90;;;;;;5003332;28;20445;-84
2023/12/14 10:04:17;;;;;;;13.80;4.90;;;8.00;99.90;;;;;;5006101;28;20287;-84
2023/12/14 10:06:45;;;;;;;8.00;4.20;;;8.00;99.90;;;;;;5004580;28;20259;-84
2023/12/14 10:09:13;;;;;;;16.40;4.20;;;8.10;99.90;;;;;;5011179;28;20272;-84
2023/12/14 10:11:39;;;;;;;9.65;4.70;;;8.00;99.90;;;;;;4987150;28;20182;-84
2023/12/14 10:14:25;;;;;;;9.30;4.00;;;8.00;99.90;;;;;;5003168;28;20233;-84
2023/12/14 10:16:52;;;;;;;10.27;3.60;;;7.90;99.90;;;;;;5005582;28;20346;-84
2023/12/14 10:19:21;;;;;;;6.30;3.28;;;8.00;99.90;;;;;;5003687;28;20190;-84
2023/12/14 10:21:47;;;;;;;7.47;5.05;;;7.90;99.90;;;;;;5007743;28;20191;-84
2023/12/14 10:24:14;;;;;;;8.40;5.15;;;8.00;99.90;;;;;;4986334;28;20212;-84
2023/12/14 10:26:40;;;;;;;9.23;4.93;;;8.00;99.90;;;;;;5006099;28;20202;-84
2023/12/14 10:29:06;;;;;;;5.13;3.27;;;8.00;99.90;;;;;;4984363;28;20201;-84
2023/12/14 10:31:37;;;;;;;8.40;4.13;;;8.00;99.90;;;;;;4994816;28;20182;-83
2023/12/14 10:34:03;;;;;;;9.23;3.78;;;8.00;99.90;;;;;;4999095;28;20217;-83
2023/12/14 10:36:30;;;;;;;7.53;4.00;;;7.90;99.90;;;;;;5002603;28;20182;-84
2023/12/14 10:38:58;;;;;;;9.43;4.03;;;8.00;99.90;;;;;;5000379;28;20348;-83
2023/12/14 10:41:28;;;;;;;8.13;4.45;;;8.00;99.90;;;;;;5002040;28;20229;-84
2023/12/14 10:43:56;;;;;;;8.43;2.63;;;8.00;99.90;;;;;;4981086;28;20214;-84
2023/12/14 10:46:23;;;;;;;11.80;3.90;;;8.00;99.90;;;;;;4988067;28;20688;-84
2023/12/14 10:48:50;;;;;;;9.38;4.18;;;8.10;99.90;;;;;;4987654;28;20194;-84
2023/12/14 10:51:19;;;;;;;17.10;5.25;;;8.20;99.90;;;;;;5003317;28;20187;-85
2023/12/14 10:53:49;;;;;;;4.07;2.65;;;8.20;99.90;;;;;;5002348;28;20723;-85
2023/12/14 10:56:16;;;;;;;5.28;2.45;;;8.40;99.90;;;;;;5003245;28;20183;-86
2023/12/14 10:58:53;;;;;;;6.47;3.35;;;8.50;99.90;;;;;;5007247;28;20214;-84
2023/12/14 11:01:20;;;;;;;10.52;3.95;;;8.60;99.90;;;;;;5005965;28;20562;-84
2023/12/14 11:03:47;;;;;;;6.45;3.08;;;8.60;99.90;;;;;;5001915;28;20245;-83
2023/12/14 11:06:30;;;;;;;6.95;3.67;;;8.50;99.90;;;;;;5008970;28;20179;-84
2023/12/14 11:09:10;;;;;;;8.15;3.95;;;8.80;99.90;;;;;;5005432;28;20190;-84
2023/12/14 11:11:59;;;;;;;6.15;2.92;;;9.00;99.90;;;;;;4989908;28;20298;-85
2023/12/14 11:14:26;;;;;;;4.70;2.83;;;9.20;99.90;;;;;;4987623;28;20225;-85
2023/12/14 11:17:06;;;;;;;8.20;4.05;;;9.10;99.90;;;;;;4990130;28;20220;-84
2023/12/14 11:19:32;;;;;;;7.10;3.35;;;8.90;99.90;;;;;;5008918;28;20197;-85
2023/12/14 11:22:07;;;;;;;4.18;2.97;;;8.90;99.90;;;;;;4991059;28;20279;-86
2023/12/14 11:24:34;;;;;;;6.25;2.70;;;8.70;99.90;;;;;;5006545;28;20213;-85
2023/12/14 11:27:07;;;;;;;6.63;3.17;;;8.70;99.90;;;;;;5005803;28;20221;-85
2023/12/14 11:29:33;;;;;;;8.23;3.15;;;8.70;99.90;;;;;;5008299;28;21112;-85
2023/12/14 11:31:58;;;;;;;12.67;4.27;;;8.80;99.90;;;;;;5004301;28;20183;-89
2023/12/14 11:34:25;;;;;;;8.67;4.07;;;;;;;;;;4996795;28;20207;-83
2023/12/14 11:36:50;;;;;;;6.18;3.80;;;8.70;99.90;;;;;;5015121;28;20225;-83
2023/12/14 11:39:16;;;;;;;3.33;2.20;;;8.60;99.90;;;;;;5010772;28;20203;-83
2023/12/14 11:41:42;;;;;;;5.40;2.37;;;;;;;;;;5011338;28;20198;-83
2023/12/14 11:44:08;;;;;;;3.60;2.60;;;;;;;;;;5010627;28;20213;-83
2023/12/14 11:46:34;;;;;;;6.20;2.27;;;;;;;;;;5009035;28;20468;-83
2023/12/14 11:49:03;;;;;;;5.22;2.75;;;8.30;99.90;;;;;;5013116;28;20437;-82
2023/12/14 11:51:30;;;;;;;3.15;2.63;;;8.30;99.90;;;;;;4995169;28;20175;-82
2023/12/14 11:53:58;;;;;;;9.40;3.72;;;;;;;;;;5007738;28;20209;-84
2023/12/14 11:56:25;;;;;;;6.65;2.80;;;;;;;;;;5012427;28;20193;-83
2023/12/14 11:58:51;;;;;;;6.90;2.90;;;;;;;;;;4999208;28;20211;-83
2023/12/14 12:01:18;;;;;;;4.15;2.47;;;8.40;99.90;;;;;;5009951;28;20190;-85
2023/12/14 12:03:45;;;;;;;4.53;2.38;;;8.40;99.90;;;;;;5010592;28;20278;-85
2023/12/14 12:06:27;;;;;;;2.95;1.60;;;8.50;99.90;;;;;;4996904;28;20186;-83
2023/12/14 12:08:53;;;;;;;2.05;1.50;;;8.50;99.90;;;;;;5007915;28;20277;-84
2023/12/14 12:11:21;;;;;;;0.83;0.60;;;8.30;99.90;;;;;;4991633;28;20283;-85
2023/12/14 12:13:57;;;;;;;3.15;1.17;;;8.30;99.90;;;;;;5013544;28;20468;-85
2023/12/14 12:16:23;;;;;;;5.38;1.35;;;8.30;99.90;;;;;;5011150;28;20190;-84
2023/12/14 12:18:52;;;;;;;1.47;1.13;;;8.20;99.90;;;;;;5011490;28;20182;-85
2023/12/14 12:21:18;;;;;;;1.48;0.90;;;8.00;99.90;;;;;;5010490;28;20453;-85
2023/12/14 12:23:43;;;;;;;5.73;0.83;;;7.80;99.90;;;;;;5006765;28;20229;-84
2023/12/14 12:26:09;;;;;;;3.80;1.47;;;7.60;99.90;;;;;;4994238;28;20686;-84
2023/12/14 12:28:34;;;;;;;1.47;1.37;;;7.50;99.90;;;;;;4992949;28;20178;-84
2023/12/14 12:31:00;;;;;;;3.63;1.70;;;7.40;99.90;;;;;;5007635;28;20441;-85
2023/12/14 12:33:26;;;;;;;1.97;1.00;;;7.40;99.90;;;;;;5007452;28;20222;-84
2023/12/14 12:35:54;;;;;;;3.28;1.35;;;7.30;99.90;;;;;;4992601;28;20243;-84
2023/12/14 12:38:20;;;;;;;0.70;0.70;;;7.30;99.90;;;;;;4990862;28;20716;-84
2023/12/14 12:40:46;;;;;;;2.13;1.27;;;7.20;99.90;;;;;;4993403;28;20217;-85
2023/12/14 12:43:12;;;;;;;7.70;1.77;;;7.40;99.90;;;;;;4998859;28;20206;-84
2023/12/14 12:45:38;;;;;;;8.88;2.28;;;7.80;99.90;;;;;;4993254;28;20186;-84
2023/12/14 12:48:06;;;;;;;2.00;1.33;;;7.60;99.90;;;;;;4988144;28;20210;-84
2023/12/14 12:50:32;;;;;;;3.78;1.70;;;;;;;;;;4988495;28;20308;-83
2023/12/14 12:52:58;;;;;;;2.07;1.17;;;7.80;99.90;;;;;;5005034;28;20239;-83
2023/12/14 12:55:23;;;;;;;3.77;1.87;;;7.80;99.90;;;;;;4999657;28;20494;-83
2023/12/14 12:57:49;;;;;;;4.00;1.37;;;7.70;99.90;;;;;;5009637;28;20194;-85
2023/12/14 13:00:15;;;;;;;2.97;1.43;;;7.50;99.90;;;;;;5010078;28;21121;-84